createdAt,value
2022-09-17T00:01:28.785Z,3.78
2022-09-17T00:03:57.576Z,3.72
2022-09-17T00:06:25.509Z,3.35
2022-09-17T00:08:53.933Z,3.00
2022-09-17T00:11:24.527Z,3.10
2022-09-17T00:13:53.967Z,3.38
2022-09-17T00:16:26.986Z,3.90
2022-09-17T00:18:54.352Z,3.63
2022-09-17T00:21:22.629Z,2.60
2022-09-17T00:23:53.721Z,3.42
2022-09-17T00:26:20.581Z,3.75
2022-09-17T00:28:50.228Z,3.00
2022-09-17T00:31:18.659Z,3.60
2022-09-17T00:33:45.688Z,3.22
2022-09-17T00:36:12.560Z,3.50
2022-09-17T00:38:39.483Z,3.40
2022-09-17T00:41:07.604Z,3.67
2022-09-17T00:43:40.945Z,3.83
2022-09-17T00:46:18.809Z,3.28
2022-09-17T00:48:47.605Z,3.33
2022-09-17T00:51:20.275Z,3.15
2022-09-17T00:53:47.509Z,3.60
2022-09-17T00:56:21.081Z,3.42
2022-09-17T00:58:48.966Z,4.20
2022-09-17T01:01:15.900Z,3.35
2022-09-17T01:03:42.836Z,3.42
2022-09-17T01:06:18.263Z,3.97
2022-09-17T01:09:06.213Z,3.10
2022-09-17T01:11:58.915Z,4.45
2022-09-17T01:14:42.718Z,3.67
2022-09-17T01:17:18.002Z,3.85
2022-09-17T01:20:23.180Z,3.55
2022-09-17T01:23:05.796Z,4.30
2022-09-17T01:25:47.946Z,4.25
2022-09-17T01:28:34.302Z,4.00
2022-09-17T01:31:36.022Z,4.32
2022-09-17T01:34:13.181Z,4.03
2022-09-17T01:36:50.251Z,3.72
2022-09-17T01:39:27.970Z,3.58
2022-09-17T01:42:01.626Z,3.53
2022-09-17T01:44:34.998Z,3.30
2022-09-17T01:47:10.465Z,3.50
2022-09-17T01:49:39.225Z,3.47
2022-09-17T01:52:09.726Z,3.72
2022-09-17T01:54:42.571Z,3.95
2022-09-17T01:57:16.412Z,3.60
2022-09-17T01:59:48.053Z,3.75
2022-09-17T02:02:24.419Z,3.17
2022-09-17T02:04:58.264Z,3.95
2022-09-17T02:07:26.081Z,3.72
2022-09-17T02:09:59.775Z,4.53
2022-09-17T02:12:33.237Z,4.07
2022-09-17T02:15:03.144Z,3.83
2022-09-17T02:17:37.503Z,3.70
2022-09-17T02:20:05.822Z,4.30
2022-09-17T02:22:39.373Z,3.40
2022-09-17T02:25:11.378Z,4.13
2022-09-17T02:27:46.749Z,3.95
2022-09-17T02:30:14.068Z,3.67
2022-09-17T02:32:42.677Z,3.70
2022-09-17T02:35:10.641Z,3.20
2022-09-17T02:37:37.616Z,3.25
2022-09-17T02:40:06.198Z,2.95
2022-09-17T02:42:47.289Z,2.83
2022-09-17T02:45:28.466Z,3.00
2022-09-17T02:48:10.772Z,3.13
2022-09-17T02:51:05.533Z,2.63
2022-09-17T02:53:38.890Z,3.20
2022-09-17T02:56:18.172Z,2.90
2022-09-17T02:58:50.827Z,2.67
2022-09-17T03:01:32.714Z,2.70
2022-09-17T03:04:04.942Z,2.97
2022-09-17T03:06:32.371Z,2.90
2022-09-17T03:08:59.206Z,3.58
2022-09-17T03:11:26.350Z,3.35
2022-09-17T03:13:53.165Z,4.25
2022-09-17T03:16:20.119Z,4.53
2022-09-17T03:18:46.987Z,4.90
2022-09-17T03:21:15.222Z,4.95
2022-09-17T03:23:42.418Z,5.00
2022-09-17T03:26:09.512Z,4.82
2022-09-17T03:28:36.332Z,5.63
2022-09-17T03:31:03.597Z,5.80
2022-09-17T03:33:30.955Z,5.75
2022-09-17T03:35:57.850Z,4.47
2022-09-17T03:38:26.173Z,4.53
2022-09-17T03:40:59.993Z,3.70
2022-09-17T03:43:27.200Z,3.35
2022-09-17T03:45:54.324Z,3.00
2022-09-17T03:48:21.302Z,4.13
2022-09-17T03:50:48.136Z,3.13
2022-09-17T03:53:15.168Z,3.58
2022-09-17T03:55:43.522Z,3.00
2022-09-17T03:58:10.871Z,2.42
2022-09-17T04:00:38.085Z,2.20
2022-09-17T04:03:06.060Z,2.53
2022-09-17T04:05:33.210Z,2.70
2022-09-17T04:08:00.082Z,2.50
2022-09-17T04:10:26.998Z,2.40
2022-09-17T04:12:55.181Z,2.72
2022-09-17T04:15:22.031Z,3.03
2022-09-17T04:17:48.921Z,2.78
2022-09-17T04:20:15.958Z,3.42
2022-09-17T04:22:42.841Z,2.90
2022-09-17T04:25:11.250Z,2.80
2022-09-17T04:27:38.100Z,3.05
2022-09-17T04:30:07.869Z,2.65
2022-09-17T04:32:34.699Z,2.47
2022-09-17T04:35:01.539Z,2.88
2022-09-17T04:37:28.398Z,2.70
2022-09-17T04:39:55.305Z,2.38
2022-09-17T04:42:22.899Z,2.92
2022-09-17T04:44:49.707Z,2.78
2022-09-17T04:47:17.902Z,3.13
2022-09-17T04:49:44.951Z,2.83
2022-09-17T04:52:11.902Z,2.15
2022-09-17T04:54:38.688Z,2.50
2022-09-17T04:57:05.552Z,1.85
2022-09-17T04:59:32.441Z,2.40
2022-09-17T05:01:59.275Z,2.88
2022-09-17T05:04:27.569Z,2.50
2022-09-17T05:06:54.424Z,2.72
2022-09-17T05:09:21.256Z,3.22
2022-09-17T05:11:48.182Z,2.50
2022-09-17T05:14:14.981Z,3.20
2022-09-17T05:16:42.022Z,3.45
2022-09-17T05:19:08.837Z,3.60
2022-09-17T05:21:37.060Z,4.22
2022-09-17T05:24:04.045Z,4.00
2022-09-17T05:26:30.901Z,4.60
2022-09-17T05:28:58.139Z,4.55
2022-09-17T05:31:25.300Z,5.38
2022-09-17T05:33:52.211Z,4.88
2022-09-17T05:36:19.344Z,5.82
2022-09-17T05:38:47.866Z,5.80
2022-09-17T05:41:14.941Z,5.35
2022-09-17T05:43:43.121Z,5.00
2022-09-17T05:46:10.996Z,5.50
2022-09-17T05:48:37.889Z,4.90
2022-09-17T05:51:04.973Z,5.18
2022-09-17T05:53:31.831Z,5.50
2022-09-17T05:56:00.079Z,5.85
2022-09-17T05:58:27.295Z,6.05
2022-09-17T06:00:54.199Z,6.72
2022-09-17T06:03:22.936Z,7.20
2022-09-17T06:05:54.549Z,7.40
2022-09-17T06:08:21.709Z,7.90
2022-09-17T06:10:49.013Z,10.18
2022-09-17T06:13:17.806Z,10.40
2022-09-17T06:15:50.597Z,9.73
2022-09-17T06:18:17.701Z,12.90
2022-09-17T06:20:53.237Z,9.90
2022-09-17T06:23:20.138Z,7.15
2022-09-17T06:25:51.740Z,8.95
2022-09-17T06:28:20.127Z,15.95
2022-09-17T06:30:46.985Z,10.32
2022-09-17T06:33:14.249Z,15.65
2022-09-17T06:35:41.262Z,8.70
2022-09-17T06:38:08.734Z,8.38
2022-09-17T06:40:35.634Z,9.32
2022-09-17T06:43:02.718Z,11.85
2022-09-17T06:45:31.845Z,7.32
2022-09-17T06:48:03.821Z,6.65
2022-09-17T06:50:31.329Z,7.15
2022-09-17T06:52:58.167Z,7.00
2022-09-17T06:55:25.027Z,6.65
2022-09-17T06:57:51.914Z,7.10
2022-09-17T07:00:18.951Z,6.03
2022-09-17T07:02:56.862Z,5.75
2022-09-17T07:05:24.007Z,5.72
2022-09-17T07:07:51.005Z,5.97
2022-09-17T07:10:18.349Z,6.18
2022-09-17T07:12:49.713Z,5.78
2022-09-17T07:15:17.130Z,4.90
2022-09-17T07:17:44.583Z,8.98
2022-09-17T07:20:13.500Z,9.77
2022-09-17T07:22:40.480Z,6.90
2022-09-17T07:25:08.459Z,7.25
2022-09-17T07:27:35.322Z,7.25
2022-09-17T07:30:02.516Z,10.75
2022-09-17T07:32:30.413Z,5.57
2022-09-17T07:34:57.274Z,7.75
2022-09-17T07:37:25.603Z,6.00
2022-09-17T07:39:52.480Z,5.75
2022-09-17T07:42:19.516Z,4.65
2022-09-17T07:44:46.925Z,6.15
2022-09-17T07:47:13.918Z,5.82
2022-09-17T07:49:40.861Z,5.32
2022-09-17T07:52:07.799Z,5.20
2022-09-17T07:54:39.275Z,5.53
2022-09-17T07:57:06.146Z,5.20
2022-09-17T07:59:33.539Z,5.10
2022-09-17T08:02:00.563Z,5.40
2022-09-17T08:04:27.566Z,6.32
2022-09-17T08:06:54.433Z,4.15
2022-09-17T08:09:22.774Z,4.32
2022-09-17T08:11:56.103Z,4.00
2022-09-17T08:16:57.010Z,4.70
2022-09-17T08:19:24.594Z,3.90
2022-09-17T08:21:52.320Z,16.77
2022-09-17T08:24:19.229Z,6.75
2022-09-17T08:26:46.443Z,3.80
2022-09-17T08:29:15.000Z,3.67
2022-09-17T08:31:41.992Z,3.97
2022-09-17T08:34:10.382Z,3.50
2022-09-17T08:36:37.651Z,3.30
2022-09-17T08:39:04.738Z,3.63
2022-09-17T08:41:42.287Z,3.70
2022-09-17T08:44:22.273Z,3.13
2022-09-17T08:46:52.338Z,4.75
2022-09-17T08:49:30.822Z,3.13
2022-09-17T08:52:30.532Z,3.20
2022-09-17T08:55:05.441Z,2.60
2022-09-17T08:57:40.509Z,2.50
2022-09-17T09:00:14.131Z,3.13
2022-09-17T09:02:56.093Z,2.08
2022-09-17T09:05:30.826Z,2.28
2022-09-17T09:08:04.461Z,2.80
2022-09-17T09:10:38.015Z,4.53
2022-09-17T09:13:05.298Z,3.08
2022-09-17T09:15:38.359Z,3.15
2022-09-17T09:18:16.425Z,5.33
2022-09-17T09:20:49.516Z,3.38
2022-09-17T09:23:20.023Z,4.63
2022-09-17T09:25:57.119Z,4.28
2022-09-17T09:28:40.045Z,3.50
2022-09-17T09:31:22.049Z,4.65
2022-09-17T09:33:50.844Z,3.22
2022-09-17T09:36:22.177Z,3.00
2022-09-17T09:38:56.619Z,2.63
2022-09-17T09:41:31.482Z,2.72
2022-09-17T09:44:04.684Z,2.70
2022-09-17T09:49:38.045Z,2.47
2022-09-17T09:52:20.152Z,2.72
2022-09-17T09:54:59.664Z,2.10
2022-09-17T09:57:38.044Z,2.15
2022-09-17T10:00:29.013Z,2.03
2022-09-17T10:03:03.159Z,2.47
2022-09-17T10:05:33.623Z,1.95
2022-09-17T10:08:00.846Z,1.58
2022-09-17T10:10:28.121Z,1.83
2022-09-17T10:13:06.379Z,3.58
2022-09-17T10:15:33.341Z,1.77
2022-09-17T10:18:17.346Z,6.82
2022-09-17T10:21:01.989Z,1.98
2022-09-17T10:23:34.681Z,1.52
2022-09-17T10:26:01.642Z,2.15
2022-09-17T10:28:33.529Z,1.70
2022-09-17T10:31:08.517Z,1.65
2022-09-17T10:33:38.215Z,2.30
2022-09-17T10:36:10.137Z,1.58
2022-09-17T10:38:40.797Z,2.55
2022-09-17T10:41:17.106Z,2.72
2022-09-17T10:43:44.800Z,6.93
2022-09-17T10:46:16.285Z,3.00
2022-09-17T10:48:46.242Z,2.38
2022-09-17T10:51:24.496Z,1.67
2022-09-17T10:54:13.973Z,2.22
2022-09-17T10:56:46.693Z,2.40
2022-09-17T10:59:58.199Z,1.98
2022-09-17T11:03:00.173Z,3.03
2022-09-17T11:05:41.554Z,4.35
2022-09-17T11:08:17.135Z,3.97
2022-09-17T11:10:54.136Z,3.00
2022-09-17T11:13:31.812Z,2.78
2022-09-17T11:16:15.648Z,1.85
2022-09-17T11:18:45.713Z,3.95
2022-09-17T11:21:36.158Z,5.00
2022-09-17T11:24:45.988Z,2.20
2022-09-17T11:27:26.227Z,1.55
2022-09-17T11:30:09.189Z,2.53
2022-09-17T11:33:09.812Z,2.05
2022-09-17T11:35:41.080Z,1.20
2022-09-17T11:38:15.123Z,2.47
2022-09-17T11:40:48.301Z,1.42
2022-09-17T11:43:25.889Z,1.13
2022-09-17T11:46:00.944Z,0.85
2022-09-17T11:48:35.633Z,1.10
2022-09-17T11:51:13.148Z,1.02
2022-09-17T11:53:43.991Z,1.00
2022-09-17T11:56:21.379Z,0.85
2022-09-17T11:58:52.281Z,0.95
2022-09-17T12:01:28.067Z,1.05
2022-09-17T12:03:59.538Z,0.80
2022-09-17T12:06:32.358Z,0.90
2022-09-17T12:09:04.999Z,0.88
2022-09-17T12:11:38.328Z,1.20
2022-09-17T12:14:11.627Z,0.80
2022-09-17T12:16:45.149Z,0.88
2022-09-17T12:19:18.591Z,0.90
2022-09-17T12:21:49.089Z,1.25
2022-09-17T12:24:22.085Z,0.70
2022-09-17T12:27:03.995Z,0.87
2022-09-17T12:29:44.610Z,1.33
2022-09-17T12:32:37.205Z,1.10
2022-09-17T12:35:18.671Z,1.00
2022-09-17T12:38:00.508Z,0.82
2022-09-17T12:40:32.540Z,0.80
2022-09-17T12:43:15.875Z,0.90
2022-09-17T12:45:56.736Z,0.93
2022-09-17T12:48:40.425Z,1.10
2022-09-17T12:51:15.199Z,0.90
2022-09-17T12:53:49.154Z,0.80
2022-09-17T12:56:34.705Z,0.50
2022-09-17T12:59:10.447Z,1.00
2022-09-17T13:01:47.051Z,1.13
2022-09-17T13:05:00.016Z,0.70
2022-09-17T13:08:09.120Z,0.85
2022-09-17T13:11:02.967Z,0.85
2022-09-17T13:13:42.090Z,0.93
2022-09-17T13:16:19.814Z,1.00
2022-09-17T13:21:51.715Z,0.65
2022-09-17T13:24:20.318Z,0.70
2022-09-17T13:26:47.884Z,0.80
2022-09-17T13:30:00.344Z,6.57
2022-09-17T13:32:47.949Z,1.33
2022-09-17T13:35:52.084Z,1.10
2022-09-17T13:38:23.085Z,0.70
2022-09-17T13:40:51.295Z,0.85
2022-09-17T13:43:26.264Z,0.80
2022-09-17T13:46:16.172Z,0.75
2022-09-17T13:48:56.769Z,0.50
2022-09-17T13:51:51.244Z,0.70
2022-09-17T13:56:48.532Z,0.77
2022-09-17T13:59:19.270Z,0.50
2022-09-17T14:02:02.931Z,0.45
2022-09-17T14:04:47.144Z,0.52
2022-09-17T14:10:34.819Z,0.75
2022-09-17T14:13:27.926Z,0.77
2022-09-17T14:16:03.415Z,0.70
2022-09-17T14:18:38.862Z,0.60
2022-09-17T14:21:14.650Z,8.88
2022-09-17T14:23:46.627Z,2.35
2022-09-17T14:26:24.963Z,0.80
2022-09-17T14:28:59.899Z,0.50
2022-09-17T14:31:34.069Z,0.60
2022-09-17T14:34:04.696Z,0.35
2022-09-17T14:36:38.428Z,0.60
2022-09-17T14:39:11.629Z,0.40
2022-09-17T14:41:42.504Z,0.38
2022-09-17T14:44:15.563Z,0.28
2022-09-17T14:46:51.172Z,0.53
2022-09-17T14:49:21.673Z,0.38
2022-09-17T14:51:50.520Z,0.40
2022-09-17T14:54:23.111Z,0.32
2022-09-17T14:56:58.646Z,0.60
2022-09-17T14:59:50.616Z,0.55
2022-09-17T15:02:29.226Z,0.40
2022-09-17T15:04:57.234Z,0.73
2022-09-17T15:07:26.217Z,3.63
2022-09-17T15:09:55.482Z,0.85
2022-09-17T15:12:28.440Z,0.70
2022-09-17T15:14:57.059Z,0.60
2022-09-17T15:17:27.221Z,0.38
2022-09-17T15:19:58.414Z,0.90
2022-09-17T15:22:29.997Z,0.75
2022-09-17T15:24:59.798Z,0.52
2022-09-17T15:27:30.072Z,0.57
2022-09-17T15:30:00.698Z,0.50
2022-09-17T15:32:28.271Z,0.40
2022-09-17T15:35:18.990Z,0.60
2022-09-17T15:38:11.571Z,0.40
2022-09-17T15:40:39.351Z,0.30
2022-09-17T15:43:16.976Z,0.30
2022-09-17T15:45:44.380Z,0.30
2022-09-17T15:48:37.198Z,0.65
2022-09-17T15:51:07.069Z,0.30
2022-09-17T15:53:36.694Z,0.40
2022-09-17T15:56:07.663Z,0.50
2022-09-17T15:58:51.294Z,0.40
2022-09-17T16:01:50.546Z,0.40
2022-09-17T16:04:22.912Z,0.40
2022-09-17T16:06:54.404Z,0.40
2022-09-17T16:09:41.471Z,0.50
2022-09-17T16:12:12.079Z,0.35
2022-09-17T16:14:39.400Z,0.50
2022-09-17T16:17:20.385Z,0.50
2022-09-17T16:19:47.239Z,0.50
2022-09-17T16:22:14.168Z,0.40
2022-09-17T16:24:42.380Z,0.40
2022-09-17T16:27:16.457Z,0.50
2022-09-17T16:29:43.690Z,0.60
2022-09-17T16:32:11.937Z,0.70
2022-09-17T16:34:38.859Z,0.80
2022-09-17T16:37:05.819Z,0.35
2022-09-17T16:39:33.034Z,0.55
2022-09-17T16:42:01.772Z,0.98
2022-09-17T16:44:28.661Z,0.60
2022-09-17T16:46:55.633Z,0.80
2022-09-17T16:49:22.928Z,0.60
2022-09-17T16:51:50.335Z,0.60
2022-09-17T16:54:17.838Z,0.65
2022-09-17T16:56:45.551Z,0.47
2022-09-17T16:59:14.635Z,0.65
2022-09-17T17:01:41.530Z,0.70
2022-09-17T17:04:08.571Z,0.68
2022-09-17T17:06:35.569Z,0.63
2022-09-17T17:09:02.584Z,0.70
2022-09-17T17:11:29.433Z,0.52
2022-09-17T17:13:57.427Z,0.75
2022-09-17T17:16:27.765Z,0.55
2022-09-17T17:18:55.605Z,0.90
2022-09-17T17:21:22.497Z,0.60
2022-09-17T17:23:49.506Z,0.52
2022-09-17T17:26:17.149Z,0.68
2022-09-17T17:28:44.234Z,0.70
2022-09-17T17:31:12.030Z,0.40
2022-09-17T17:33:40.597Z,0.50
2022-09-17T17:36:08.571Z,1.08
2022-09-17T17:38:35.966Z,0.60
2022-09-17T17:41:05.602Z,0.40
2022-09-17T17:43:32.671Z,0.50
2022-09-17T17:45:59.654Z,0.50
2022-09-17T17:48:26.505Z,0.60
2022-09-17T17:50:56.880Z,0.47
2022-09-17T17:53:24.852Z,0.57
2022-09-17T17:55:58.766Z,0.60
2022-09-17T18:00:53.277Z,0.40
2022-09-17T18:03:25.373Z,0.70
2022-09-17T18:05:59.668Z,0.77
2022-09-17T18:08:27.676Z,0.57
2022-09-17T18:10:55.619Z,1.00
2022-09-17T18:13:23.447Z,0.90
2022-09-17T18:15:54.694Z,1.00
2022-09-17T18:18:24.420Z,0.70
2022-09-17T18:20:53.399Z,0.82
2022-09-17T18:23:23.172Z,0.80
2022-09-17T18:25:54.285Z,0.80
2022-09-17T18:28:21.870Z,0.75
2022-09-17T18:30:49.377Z,0.98
2022-09-17T18:33:20.325Z,0.95
2022-09-17T18:35:47.594Z,1.02
2022-09-17T18:38:15.756Z,0.88
2022-09-17T18:40:44.463Z,1.00
2022-09-17T18:43:11.467Z,0.70
2022-09-17T18:45:38.424Z,0.93
2022-09-17T18:48:06.381Z,1.05
2022-09-17T18:50:33.609Z,1.05
2022-09-17T18:53:00.695Z,0.90
2022-09-17T18:55:27.844Z,1.08
2022-09-17T18:57:56.392Z,1.15
2022-09-17T19:00:24.450Z,1.00
2022-09-17T19:02:51.447Z,0.90
2022-09-17T19:05:18.833Z,1.42
2022-09-17T19:07:46.868Z,1.10
2022-09-17T19:10:14.526Z,0.77
2022-09-17T19:12:42.464Z,1.15
2022-09-17T19:15:11.847Z,1.42
2022-09-17T19:17:38.658Z,0.93
2022-09-17T19:20:06.955Z,1.02
2022-09-17T19:22:34.070Z,1.20
2022-09-17T19:25:01.232Z,1.30
2022-09-17T19:27:29.443Z,1.17
2022-09-17T19:29:57.945Z,1.10
2022-09-17T19:32:28.413Z,1.00
2022-09-17T19:34:55.464Z,1.13
2022-09-17T19:37:22.530Z,1.30
2022-09-17T19:39:49.426Z,1.20
2022-09-17T19:42:16.337Z,1.48
2022-09-17T19:44:43.545Z,1.20
2022-09-17T19:47:10.454Z,1.02
2022-09-17T19:49:38.968Z,1.27
2022-09-17T19:52:06.085Z,1.52
2022-09-17T19:54:33.218Z,1.23
2022-09-17T19:57:00.151Z,1.48
2022-09-17T19:59:26.980Z,1.30
2022-09-17T20:01:54.038Z,1.42
2022-09-17T20:04:21.056Z,1.63
2022-09-17T20:06:49.470Z,1.27
2022-09-17T20:09:16.687Z,1.35
2022-09-17T20:11:43.606Z,1.10
2022-09-17T20:14:11.862Z,1.60
2022-09-17T20:16:40.161Z,1.13
2022-09-17T20:19:08.168Z,1.67
2022-09-17T20:21:35.570Z,1.15
2022-09-17T20:24:06.332Z,1.30
2022-09-17T20:26:34.452Z,1.17
2022-09-17T20:29:01.388Z,1.40
2022-09-17T20:31:30.000Z,1.17
2022-09-17T20:33:58.878Z,1.30
2022-09-17T20:36:28.568Z,1.80
2022-09-17T20:41:44.881Z,2.75
2022-09-17T20:44:11.910Z,1.77
2022-09-17T20:46:38.995Z,1.20
2022-09-17T20:49:06.190Z,1.38
2022-09-17T20:51:34.108Z,1.13
2022-09-17T20:54:01.809Z,1.45
2022-09-17T20:56:31.780Z,1.50
2022-09-17T20:59:08.313Z,1.77
2022-09-17T21:01:37.550Z,1.40
2022-09-17T21:04:06.988Z,1.77
2022-09-17T21:06:36.131Z,1.23
2022-09-17T21:09:03.971Z,1.60
2022-09-17T21:11:31.520Z,1.58
2022-09-17T21:14:00.530Z,1.30
2022-09-17T21:16:28.452Z,1.88
2022-09-17T21:18:57.252Z,1.10
2022-09-17T21:21:25.940Z,1.60
2022-09-17T21:23:52.862Z,2.08
2022-09-17T21:26:21.477Z,1.70
2022-09-17T21:28:49.973Z,1.90
2022-09-17T21:31:20.751Z,1.92
2022-09-17T21:33:50.984Z,1.90
2022-09-17T21:36:19.264Z,1.67
2022-09-17T21:38:49.903Z,1.77
2022-09-17T21:41:16.750Z,1.58
2022-09-17T21:43:44.997Z,2.00
2022-09-17T21:46:13.835Z,1.77
2022-09-17T21:48:45.023Z,1.77
2022-09-17T21:51:13.741Z,1.98
2022-09-17T21:53:40.792Z,2.08
2022-09-17T21:56:10.024Z,2.38
2022-09-17T21:58:37.232Z,2.42
2022-09-17T22:01:06.340Z,2.10
2022-09-17T22:03:34.001Z,2.30
2022-09-17T22:06:07.110Z,2.35
2022-09-17T22:08:37.975Z,2.10
2022-09-17T22:11:07.524Z,2.60
2022-09-17T22:13:35.095Z,2.60
2022-09-17T22:16:04.982Z,2.63
2022-09-17T22:18:32.427Z,2.55
2022-09-17T22:20:59.525Z,2.35
2022-09-17T22:23:28.121Z,2.40
2022-09-17T22:26:02.537Z,2.10
2022-09-17T22:28:29.447Z,3.00
2022-09-17T22:30:56.477Z,1.80
2022-09-17T22:33:23.530Z,1.70
2022-09-17T22:35:50.751Z,1.77
2022-09-17T22:38:18.213Z,2.15
2022-09-17T22:40:46.534Z,2.22
2022-09-17T22:43:13.410Z,2.55
2022-09-17T22:45:40.204Z,2.10
2022-09-17T22:48:07.065Z,2.22
2022-09-17T22:50:34.040Z,1.88
2022-09-17T22:53:00.918Z,2.13
2022-09-17T22:55:27.846Z,1.92
2022-09-17T22:57:56.076Z,2.30
2022-09-17T23:00:22.880Z,2.10
2022-09-17T23:02:49.800Z,2.05
2022-09-17T23:05:16.789Z,1.80
2022-09-17T23:07:43.657Z,2.10
2022-09-17T23:10:10.504Z,2.28
2022-09-17T23:12:37.340Z,2.15
2022-09-17T23:15:06.559Z,2.45
2022-09-17T23:17:33.378Z,2.85
2022-09-17T23:20:00.394Z,2.20
2022-09-17T23:22:27.355Z,2.72
2022-09-17T23:24:54.189Z,2.25
2022-09-17T23:27:21.120Z,2.22
2022-09-17T23:32:33.777Z,2.10
2022-09-17T23:35:00.569Z,2.20
2022-09-17T23:37:28.369Z,1.95
2022-09-17T23:39:55.624Z,1.60
2022-09-17T23:42:22.491Z,2.35
2022-09-17T23:44:49.374Z,1.95
2022-09-17T23:47:16.173Z,2.42
2022-09-17T23:49:44.445Z,2.42
2022-09-17T23:52:11.256Z,2.20
2022-09-17T23:54:38.091Z,2.10
2022-09-17T23:57:04.965Z,2.42
2022-09-17T23:59:31.820Z,2.40
